Resistencia, Argentina

8:28 PM ART on March 30, 2015 (GMT -0300)
Resistencia | | Change Station
CLOSE
Current Station
Airport
Location: Resistencia,
Elevation: 171 ft
Nearby Weather Stations

Elev 171 ft 27.45 °S, 59.06 °W | Updated 28 minutes ago

Clear
Clear
73 °F
Feels Like 73 °F
N
2
Wind Variable Wind from ENE

Today
High -- | Low -- °F
--% Chance of Precip.
Yesterday
High -- | Low -- °F
Precip. -- in
7:04 AM 6:56 PM
Waxing Gibbous, 83% visible
Pressure 29.89 in
Visibility 4.3 miles
Clouds
Dew Point 64 °F
Humidity 73%
Rainfall 0.00 in
Snow Depth Not available.
UV Not available.
Pollen Not available.
Air Quality Not available.
Flu Activity Not available.
METAR SARE 302300Z 07002KT 7000 NSC 23/18 Q1012

More Conditions Fewer Conditions

Pressure 29.89 in
Visibility 4.3 miles
Clouds
Dew Point 64 °F
Humidity 73%
Rainfall 0.00 in
Snow Depth Not available.
UV Not available.
Pollen Not available.
Air Quality Not available.
Flu Activity Not available.
METAR SARE 302300Z 07002KT 7000 NSC 23/18 Q1012

More Conditions Fewer Conditions

10-Day Weather Forecast

Almanac

Astronomy

Mar. 30, 2015 Rise Set
Actual Time
Civil Twilight
Nautical Twilight
Astronomical Twilight
Moon
Length of Visible Light
Length of Day
Tomorrow will be .
, % of the Moon is Illuminated

Today's Extremes

Country Highs Country Lows

Community

WunderPhotos

Upload Photos

1,809,620 photos uploaded!

WunderBlogs® & News

Nearby

Air Quality

  Air Quality AQ Index Pollutant
Not available.

Snow Depth

Station Depth Elevation

Earthquake Activity

City Distance Mag. Time & Date
Minimum magnitude displayed is 2.5.

Coastal Water Temperatures

Place Temperature

Stations

Nearby Weather Stations

Station Location Temp. Windchill Dew Point Humidity Wind Precip. Elev Updated Type